Time;durP1;ratioP1;P1;durP2;ratioP2;P2;SDS_P1;SDS_P2;PMS_P1;PMS_P2;Temp;Humidity;BMP_temperature;BMP_pressure;BME280_temperature;BME280_humidity;BME280_pressure;Samples;Min_cycle;Max_cycle;Signal;HPM_P1;HPM_P2
2023/06/20 00:02:21;;;;;;;7.50;6.70;;;21.10;99.90;;;;;;5118666;28;20836;-56
2023/06/20 00:04:48;;;;;;;7.93;7.23;;;21.20;99.90;;;;;;5118686;28;20491;-56
2023/06/20 00:07:17;;;;;;;7.43;6.70;;;21.20;99.90;;;;;;5118837;28;20745;-56
2023/06/20 00:09:44;;;;;;;7.17;6.53;;;21.20;99.90;;;;;;5118788;28;20745;-55
2023/06/20 00:12:12;;;;;;;7.50;6.80;;;21.20;99.90;;;;;;5118395;28;20784;-56
2023/06/20 00:14:40;;;;;;;8.10;7.17;;;21.20;99.90;;;;;;5118639;28;20742;-56
2023/06/20 00:17:07;;;;;;;7.23;6.60;;;21.20;99.90;;;;;;5118501;28;20460;-56
2023/06/20 00:19:35;;;;;;;8.63;7.10;;;21.10;99.90;;;;;;5118875;28;20460;-55
2023/06/20 00:22:02;;;;;;;8.13;6.90;;;21.10;99.90;;;;;;5118280;28;20459;-56
2023/06/20 00:24:32;;;;;;;8.90;7.90;;;21.10;99.90;;;;;;5118804;27;20437;-55
2023/06/20 00:27:00;;;;;;;6.97;6.27;;;21.10;99.90;;;;;;5118411;28;20813;-56
2023/06/20 00:29:27;;;;;;;8.70;6.80;;;21.00;99.90;;;;;;5117563;28;20470;-56
2023/06/20 00:31:54;;;;;;;7.03;6.33;;;20.90;1.00;;;;;;5118304;28;20928;-56
2023/06/20 00:34:21;;;;;;;8.20;7.40;;;20.90;1.00;;;;;;5118122;28;20761;-55
2023/06/20 00:36:49;;;;;;;8.10;7.20;;;20.90;1.00;;;;;;5118063;28;20466;-56
2023/06/20 00:39:16;;;;;;;8.50;7.17;;;20.90;1.00;;;;;;5118290;28;20928;-56
2023/06/20 00:41:44;;;;;;;8.60;7.00;;;20.80;1.00;;;;;;5118143;28;20460;-55
2023/06/20 00:44:11;;;;;;;8.43;7.60;;;20.70;1.00;;;;;;5117976;28;20467;-56
2023/06/20 00:46:40;;;;;;;8.80;7.10;;;20.70;1.00;;;;;;5117988;28;20951;-56
2023/06/20 00:49:10;;;;;;;7.67;7.07;;;20.80;1.00;;;;;;5117961;28;20460;-57
2023/06/20 00:51:38;;;;;;;7.70;6.97;;;20.80;1.00;;;;;;5118014;28;20862;-56
2023/06/20 00:54:06;;;;;;;7.80;6.73;;;20.80;1.00;;;;;;5118074;28;20456;-56
2023/06/20 00:56:33;;;;;;;7.93;7.13;;;20.80;1.00;;;;;;5117709;28;20466;-54
2023/06/20 00:59:03;;;;;;;8.50;7.80;;;20.70;1.00;;;;;;5118317;28;20463;-55
2023/06/20 01:01:31;;;;;;;8.50;7.60;;;20.60;1.00;;;;;;5117875;28;20459;-54
2023/06/20 01:04:00;;;;;;;12.40;7.30;;;20.70;1.00;;;;;;5117451;28;20491;-56
2023/06/20 01:06:45;;;;;;;8.67;7.83;;;20.70;1.00;;;;;;5117923;28;20927;-55
2023/06/20 01:09:21;;;;;;;8.20;7.40;;;20.70;1.00;;;;;;5117838;28;20884;-56
2023/06/20 01:11:55;;;;;;;8.40;7.60;;;20.70;1.00;;;;;;5118040;28;20491;-55
2023/06/20 01:14:35;;;;;;;7.33;6.63;;;20.70;34.90;;;;;;5117649;28;20553;-55
2023/06/20 01:17:07;;;;;;;8.70;7.90;;;20.60;59.70;;;;;;5117923;28;20490;-54
2023/06/20 01:20:12;;;;;;;8.60;7.80;;;20.60;99.90;;;;;;5117286;28;20545;-56
2023/06/20 01:22:57;;;;;;;10.73;8.03;;;20.50;99.90;;;;;;5117828;28;20730;-55
2023/06/20 01:25:31;;;;;;;8.10;7.30;;;20.40;99.90;;;;;;5117900;28;20467;-56
2023/06/20 01:28:08;;;;;;;7.73;7.03;;;20.30;99.90;;;;;;5117018;28;20460;-56
2023/06/20 01:30:43;;;;;;;8.13;7.30;;;20.30;99.90;;;;;;5117330;28;20455;-56
2023/06/20 01:33:13;;;;;;;8.00;7.17;;;20.20;99.90;;;;;;5117511;28;20861;-54
2023/06/20 01:35:42;;;;;;;7.97;7.27;;;20.20;1.00;;;;;;5117850;28;20477;-56
2023/06/20 01:38:14;;;;;;;7.73;6.93;;;20.10;1.00;;;;;;5117309;28;20487;-56
2023/06/20 01:40:42;;;;;;;8.70;6.97;;;20.10;1.00;;;;;;5119543;28;20495;-55
2023/06/20 01:43:13;;;;;;;8.20;7.50;;;20.10;1.00;;;;;;5121572;28;20459;-55
2023/06/20 01:45:43;;;;;;;8.50;7.60;;;20.10;1.00;;;;;;5121816;28;20516;-56
2023/06/20 01:48:12;;;;;;;8.30;7.50;;;20.20;1.00;;;;;;5121183;28;20563;-56
2023/06/20 01:50:40;;;;;;;9.10;7.77;;;20.20;1.00;;;;;;5121444;28;20547;-55
2023/06/20 01:53:10;;;;;;;7.90;7.23;;;20.00;1.00;;;;;;5121509;28;20498;-56
2023/06/20 01:55:41;;;;;;;8.07;7.17;;;20.00;1.00;;;;;;5121408;28;20546;-56
2023/06/20 01:58:09;;;;;;;8.97;8.00;;;20.00;1.00;;;;;;5120422;28;20462;-56
2023/06/20 02:00:37;;;;;;;7.87;7.17;;;20.10;1.00;;;;;;5121238;28;20464;-54
2023/06/20 02:03:05;;;;;;;8.60;7.70;;;20.10;1.00;;;;;;5120849;28;20830;-56
2023/06/20 02:05:35;;;;;;;7.47;6.77;;;20.20;1.00;;;;;;5120996;28;20470;-54
2023/06/20 02:08:03;;;;;;;8.53;7.73;;;20.20;1.00;;;;;;5121151;28;20459;-55
2023/06/20 02:10:33;;;;;;;7.77;7.03;;;20.20;1.00;;;;;;5121229;28;20459;-55
2023/06/20 02:13:01;;;;;;;8.20;7.40;;;20.20;1.00;;;;;;5120968;28;20582;-55
2023/06/20 02:15:30;;;;;;;7.20;6.60;;;20.20;1.00;;;;;;5121239;28;20460;-58
2023/06/20 02:17:58;;;;;;;7.73;7.07;;;20.20;1.00;;;;;;5120421;28;20459;-56
2023/06/20 02:20:25;;;;;;;6.67;6.07;;;20.20;1.00;;;;;;5120846;28;20562;-57
2023/06/20 02:22:55;;;;;;;7.37;6.60;;;20.20;1.00;;;;;;5120781;28;20466;-56
2023/06/20 02:25:27;;;;;;;6.43;5.83;;;20.20;1.00;;;;;;5121140;28;20797;-56
2023/06/20 02:27:57;;;;;;;7.70;6.90;;;20.30;1.00;;;;;;5120866;28;20750;-56
2023/06/20 02:30:28;;;;;;;8.17;7.00;;;20.30;1.00;;;;;;5120208;28;20558;-55
2023/06/20 02:32:57;;;;;;;7.13;6.53;;;20.30;1.00;;;;;;5120567;28;20582;-56
2023/06/20 02:35:26;;;;;;;7.37;6.57;;;20.20;1.00;;;;;;5120506;28;20577;-56
2023/06/20 02:37:57;;;;;;;8.60;6.37;;;20.20;6.30;;;;;;5120916;28;20554;-55
2023/06/20 02:40:24;;;;;;;6.43;5.83;;;20.20;5.30;;;;;;5120851;28;20452;-57
2023/06/20 02:42:52;;;;;;;6.97;6.27;;;20.20;20.70;;;;;;5120446;28;20865;-56
2023/06/20 02:45:20;;;;;;;6.10;5.60;;;20.20;1.00;;;;;;5120653;28;20929;-54
2023/06/20 02:48:01;;;;;;;7.13;6.53;;;20.20;1.00;;;;;;5120040;28;20461;-55
2023/06/20 02:50:40;;;;;;;7.13;6.50;;;20.10;4.50;;;;;;5120331;28;20505;-58
2023/06/20 02:53:15;;;;;;;6.47;5.97;;;20.10;36.60;;;;;;5119481;28;20484;-56
2023/06/20 02:55:51;;;;;;;6.90;6.30;;;20.10;99.90;;;;;;5120330;28;20565;-56
2023/06/20 02:58:22;;;;;;;6.83;6.13;;;20.10;99.90;;;;;;5120510;28;20759;-56
2023/06/20 03:00:52;;;;;;;7.33;5.57;;;20.10;99.90;;;;;;5119832;28;20466;-56
2023/06/20 03:03:24;;;;;;;6.57;5.97;;;20.10;99.90;;;;;;5119117;28;20489;-56
2023/06/20 03:05:56;;;;;;;7.30;6.60;;;20.10;99.90;;;;;;5120436;28;20829;-57
2023/06/20 03:08:27;;;;;;;7.00;6.23;;;20.00;99.90;;;;;;5119641;27;20797;-57
2023/06/20 03:10:55;;;;;;;7.73;7.13;;;20.00;99.90;;;;;;5119476;28;20481;-57
2023/06/20 03:13:23;;;;;;;6.47;5.87;;;19.90;99.90;;;;;;5119553;28;20582;-57
2023/06/20 03:15:51;;;;;;;6.40;5.90;;;19.90;99.90;;;;;;5119905;28;20554;-56
2023/06/20 03:18:19;;;;;;;7.10;6.43;;;19.80;99.90;;;;;;5119294;28;20772;-56
2023/06/20 03:20:48;;;;;;;6.50;6.00;;;19.80;99.90;;;;;;5118377;28;20459;-57
2023/06/20 03:23:15;;;;;;;6.77;6.17;;;19.70;99.90;;;;;;5117943;28;20553;-57
2023/06/20 03:25:42;;;;;;;7.87;7.17;;;19.80;99.90;;;;;;5118084;28;20889;-57
2023/06/20 03:28:10;;;;;;;7.40;6.80;;;19.80;99.90;;;;;;5118314;28;20716;-57
2023/06/20 03:30:37;;;;;;;6.90;6.40;;;19.80;99.90;;;;;;5118787;28;20726;-57
2023/06/20 03:33:06;;;;;;;7.00;6.40;;;19.80;99.90;;;;;;5118687;28;20805;-57
2023/06/20 03:35:33;;;;;;;7.57;6.77;;;19.80;99.90;;;;;;5118052;28;20462;-57
2023/06/20 03:38:00;;;;;;;7.37;6.73;;;19.80;99.90;;;;;;5117525;28;20465;-57
2023/06/20 03:40:27;;;;;;;7.63;6.93;;;19.90;1.00;;;;;;5117113;28;20557;-57
2023/06/20 03:42:54;;;;;;;6.80;6.23;;;19.80;99.90;;;;;;5117995;28;20459;-57
2023/06/20 03:45:22;;;;;;;6.90;6.30;;;19.80;99.90;;;;;;5117435;28;20462;-57
2023/06/20 03:47:49;;;;;;;7.20;6.60;;;19.70;99.90;;;;;;5117859;28;20466;-57
2023/06/20 03:50:17;;;;;;;6.73;6.13;;;19.70;99.90;;;;;;5117809;28;20885;-57
2023/06/20 03:52:44;;;;;;;6.77;6.17;;;19.70;1.00;;;;;;5119085;28;20494;-57
2023/06/20 03:55:12;;;;;;;7.70;7.00;;;19.70;99.90;;;;;;5119063;28;20768;-56
2023/06/20 03:57:39;;;;;;;7.03;6.43;;;19.70;1.00;;;;;;5118536;28;20460;-57
2023/06/20 04:00:11;;;;;;;13.40;7.40;;;19.80;99.90;;;;;;5118980;28;20455;-57
2023/06/20 04:02:41;;;;;;;7.50;6.80;;;19.80;1.00;;;;;;5118476;28;20570;-57
2023/06/20 04:05:09;;;;;;;6.50;6.00;;;19.80;1.00;;;;;;5118986;28;20463;-57
2023/06/20 04:07:42;;;;;;;7.07;6.47;;;19.90;1.00;;;;;;5119181;28;20538;-57
2023/06/20 04:10:12;;;;;;;6.63;6.03;;;19.90;93.80;;;;;;5118553;28;20463;-57
2023/06/20 04:12:39;;;;;;;7.43;6.70;;;19.90;44.70;;;;;;5116623;27;20483;-57
2023/06/20 04:15:07;;;;;;;7.43;6.73;;;19.90;99.90;;;;;;5115527;28;20885;-57
2023/06/20 04:17:34;;;;;;;7.13;6.50;;;19.90;81.70;;;;;;5116890;28;20459;-56
2023/06/20 04:20:04;;;;;;;7.93;7.27;;;19.90;99.90;;;;;;5117666;28;20546;-57
2023/06/20 04:22:32;;;;;;;7.30;6.63;;;20.00;1.00;;;;;;5118358;28;20459;-57
2023/06/20 04:25:00;;;;;;;8.30;6.73;;;20.00;1.00;;;;;;5117854;28;20466;-57
2023/06/20 04:27:27;;;;;;;8.30;7.60;;;20.10;1.00;;;;;;5117827;28;20459;-57
2023/06/20 04:29:57;;;;;;;8.23;7.43;;;20.20;1.00;;;;;;5118639;28;20478;-57
2023/06/20 04:32:24;;;;;;;7.87;7.07;;;20.20;99.90;;;;;;5117815;28;20445;-57
2023/06/20 04:34:52;;;;;;;8.33;7.53;;;20.10;1.00;;;;;;5118316;28;20460;-57
2023/06/20 04:37:19;;;;;;;8.00;7.30;;;20.10;1.00;;;;;;5118452;28;20464;-57
2023/06/20 04:39:47;;;;;;;8.07;7.27;;;20.10;1.00;;;;;;5117719;28;20780;-57
2023/06/20 04:42:15;;;;;;;7.43;6.77;;;20.10;1.00;;;;;;5116240;28;20884;-57
2023/06/20 04:44:44;;;;;;;10.13;8.60;;;20.10;1.00;;;;;;5117600;28;20459;-57
2023/06/20 04:47:12;;;;;;;8.83;7.77;;;20.10;1.00;;;;;;5117789;28;20455;-57
2023/06/20 04:49:40;;;;;;;7.60;7.00;;;20.10;1.00;;;;;;5118247;28;20755;-56
2023/06/20 04:52:08;;;;;;;9.73;8.87;;;20.10;1.00;;;;;;5117706;28;20463;-57
2023/06/20 04:54:35;;;;;;;7.43;6.83;;;20.10;1.00;;;;;;5117615;28;20792;-58
2023/06/20 04:57:02;;;;;;;9.27;8.37;;;20.10;99.90;;;;;;5115932;28;20971;-58
2023/06/20 04:59:31;;;;;;;8.47;7.67;;;20.10;99.90;;;;;;5112717;28;20479;-58
2023/06/20 05:01:58;;;;;;;8.50;7.80;;;20.20;1.00;;;;;;5111905;28;20558;-58
2023/06/20 05:04:25;;;;;;;9.57;8.57;;;20.20;99.90;;;;;;5115048;28;20493;-58
2023/06/20 05:06:52;;;;;;;7.50;6.80;;;20.20;99.90;;;;;;5115114;28;20508;-58
2023/06/20 05:09:20;;;;;;;7.93;7.23;;;20.20;99.90;;;;;;5115016;28;20562;-58
2023/06/20 05:11:50;;;;;;;6.67;6.10;;;20.10;99.90;;;;;;5115497;28;20546;-57
2023/06/20 05:14:17;;;;;;;7.43;6.83;;;20.10;99.90;;;;;;5115080;28;20530;-58
2023/06/20 05:16:46;;;;;;;7.50;6.90;;;20.20;99.90;;;;;;5114582;28;20780;-58
2023/06/20 05:19:13;;;;;;;6.77;6.10;;;20.30;99.90;;;;;;5114786;28;20462;-58
2023/06/20 05:21:40;;;;;;;6.93;6.33;;;20.30;99.90;;;;;;5115523;28;20896;-57
2023/06/20 05:24:08;;;;;;;8.53;7.27;;;20.30;99.90;;;;;;5114951;28;20869;-57
2023/06/20 05:26:35;;;;;;;6.80;6.17;;;20.50;99.90;;;;;;5115078;28;20491;-58
2023/06/20 05:29:03;;;;;;;7.20;6.60;;;20.50;99.90;;;;;;5115392;28;20460;-59
2023/06/20 05:31:30;;;;;;;7.90;7.20;;;20.70;99.90;;;;;;5115622;28;20560;-58
2023/06/20 05:33:59;;;;;;;8.13;6.90;;;20.70;90.10;;;;;;5113747;28;20564;-57
2023/06/20 05:36:26;;;;;;;7.53;6.90;;;20.80;99.90;;;;;;5114876;28;20459;-57
2023/06/20 05:38:56;;;;;;;7.93;7.23;;;20.80;92.00;;;;;;5115696;28;20558;-56
2023/06/20 05:41:23;;;;;;;8.33;7.53;;;20.80;98.90;;;;;;5116080;28;20463;-57
2023/06/20 05:43:51;;;;;;;11.13;9.30;;;20.80;99.90;;;;;;5116195;28;20455;-56
2023/06/20 05:46:18;;;;;;;7.73;7.03;;;20.80;99.90;;;;;;5115576;28;20463;-57
2023/06/20 05:48:46;;;;;;;7.53;6.40;;;20.90;99.90;;;;;;5117429;28;20466;-57
2023/06/20 05:51:15;;;;;;;7.63;6.93;;;20.90;99.90;;;;;;5117297;28;20652;-59
2023/06/20 05:53:43;;;;;;;9.30;6.87;;;20.90;99.90;;;;;;5117336;28;20767;-58
2023/06/20 05:56:10;;;;;;;6.80;6.20;;;21.00;99.90;;;;;;5117161;28;20463;-57
2023/06/20 05:58:37;;;;;;;6.23;5.73;;;21.10;67.50;;;;;;5117456;28;20924;-57
2023/06/20 06:01:05;;;;;;;6.50;5.87;;;21.20;1.00;;;;;;5117197;28;20477;-57
2023/06/20 06:03:34;;;;;;;9.17;6.27;;;21.30;1.00;;;;;;5116677;28;20484;-58
2023/06/20 06:06:03;;;;;;;7.07;6.10;;;21.40;1.00;;;;;;5117016;28;20482;-57
2023/06/20 06:08:33;;;;;;;6.63;6.03;;;21.40;1.00;;;;;;5116641;28;20459;-57
2023/06/20 06:11:00;;;;;;;8.10;6.90;;;21.50;1.00;;;;;;5117019;28;20879;-58
2023/06/20 06:13:28;;;;;;;7.30;6.60;;;21.60;1.00;;;;;;5116118;28;20493;-57
2023/06/20 06:15:55;;;;;;;7.43;5.80;;;21.70;1.00;;;;;;5117157;28;20464;-57
2023/06/20 06:18:22;;;;;;;8.87;6.13;;;22.00;1.00;;;;;;5117043;28;20456;-58
2023/06/20 06:20:50;;;;;;;7.37;6.07;;;22.10;1.00;;;;;;5117064;28;20816;-58
2023/06/20 06:23:17;;;;;;;6.63;5.90;;;22.20;1.00;;;;;;5117403;28;20912;-58
2023/06/20 06:25:46;;;;;;;7.87;5.90;;;22.30;99.90;;;;;;5116651;28;20455;-58
2023/06/20 06:28:13;;;;;;;6.33;5.73;;;22.30;99.90;;;;;;5119689;28;20884;-58
2023/06/20 06:30:40;;;;;;;6.53;6.03;;;22.40;99.90;;;;;;5119390;28;20528;-57
2023/06/20 06:33:08;;;;;;;7.10;6.50;;;22.40;99.90;;;;;;5119107;28;20582;-58
2023/06/20 06:35:36;;;;;;;7.10;6.50;;;22.40;99.90;;;;;;5118962;28;20459;-58
2023/06/20 06:38:05;;;;;;;8.17;6.30;;;22.50;99.90;;;;;;5118782;28;21009;-58
2023/06/20 06:40:33;;;;;;;6.73;6.17;;;22.50;99.90;;;;;;5118536;28;20919;-57
2023/06/20 06:43:01;;;;;;;6.33;5.73;;;22.50;99.90;;;;;;5118885;28;20513;-58
2023/06/20 06:45:29;;;;;;;6.40;5.80;;;22.50;99.90;;;;;;5120232;28;20459;-58
2023/06/20 06:47:56;;;;;;;6.23;5.63;;;22.50;99.90;;;;;;5119843;28;20463;-59
2023/06/20 06:50:23;;;;;;;7.23;6.53;;;22.50;99.90;;;;;;5119897;28;20491;-59
2023/06/20 06:52:51;;;;;;;7.30;6.70;;;22.40;99.90;;;;;;5120325;28;20546;-59
2023/06/20 06:55:18;;;;;;;6.30;5.67;;;22.40;1.00;;;;;;5119012;28;20807;-59
2023/06/20 06:57:45;;;;;;;6.53;5.93;;;22.30;99.90;;;;;;5120101;28;20542;-59
2023/06/20 07:00:15;;;;;;;6.90;6.30;;;22.30;1.00;;;;;;5119527;28;20846;-59
2023/06/20 07:02:43;;;;;;;6.30;5.80;;;22.40;1.00;;;;;;5119551;28;20630;-59
2023/06/20 07:05:11;;;;;;;6.50;5.90;;;22.80;1.00;;;;;;5119559;28;20451;-60
2023/06/20 07:07:38;;;;;;;6.37;5.30;;;23.30;99.90;;;;;;5118623;28;20459;-59
2023/06/20 07:10:07;;;;;;;7.20;6.60;;;23.80;99.90;;;;;;5119334;28;20546;-59
2023/06/20 07:12:34;;;;;;;5.23;4.83;;;24.30;8.00;;;;;;5119747;28;20462;-58
2023/06/20 07:15:02;;;;;;;6.70;6.10;;;24.70;1.00;;;;;;5119845;28;20527;-58
2023/06/20 07:17:31;;;;;;;6.00;5.60;;;24.90;1.00;;;;;;5119889;28;20459;-57
2023/06/20 07:19:58;;;;;;;6.20;5.60;;;24.90;1.00;;;;;;5119532;28;20459;-60
2023/06/20 07:22:25;;;;;;;5.60;5.20;;;24.80;1.00;;;;;;5119600;28;20549;-59
2023/06/20 07:24:53;;;;;;;6.00;5.50;;;24.90;1.00;;;;;;5119656;27;20466;-59
2023/06/20 07:27:20;;;;;;;6.07;5.57;;;24.80;1.00;;;;;;5119726;28;20514;-59
2023/06/20 07:29:47;;;;;;;5.50;5.00;;;24.80;1.00;;;;;;5105921;28;20904;-60
2023/06/20 07:32:16;;;;;;;5.60;5.20;;;25.10;1.00;;;;;;5103842;28;20502;-60
2023/06/20 07:34:48;;;;;;;5.23;4.83;;;25.50;1.00;;;;;;5117766;27;20487;-59
2023/06/20 07:37:15;;;;;;;6.40;5.63;;;25.60;99.90;;;;;;5109340;27;20899;-59
2023/06/20 07:39:43;;;;;;;6.17;5.57;;;25.90;99.90;;;;;;5118881;27;20475;-60
2023/06/20 07:42:11;;;;;;;6.67;6.10;;;26.10;99.90;;;;;;5115849;28;20471;-59
2023/06/20 07:44:38;;;;;;;6.20;5.80;;;26.40;99.90;;;;;;5115773;28;20493;-60
2023/06/20 07:47:06;;;;;;;5.27;4.87;;;26.60;99.90;;;;;;5124225;27;20460;-60
2023/06/20 07:49:33;;;;;;;6.00;5.60;;;26.80;99.90;;;;;;5134990;27;20556;-60
2023/06/20 07:52:03;;;;;;;5.40;5.00;;;27.00;99.90;;;;;;5103560;27;20464;-60
2023/06/20 07:54:31;;;;;;;5.33;4.97;;;27.10;99.90;;;;;;5097986;28;20496;-59
2023/06/20 07:56:58;;;;;;;5.60;5.20;;;27.00;99.90;;;;;;5101321;27;20475;-60
2023/06/20 07:59:26;;;;;;;6.10;5.50;;;26.80;99.90;;;;;;5119220;27;20463;-59
2023/06/20 08:01:53;;;;;;;5.87;5.47;;;26.70;99.90;;;;;;5119312;28;20550;-58
2023/06/20 08:04:20;;;;;;;6.10;5.50;;;26.90;99.90;;;;;;5118411;28;20751;-60
2023/06/20 08:06:47;;;;;;;5.87;5.47;;;27.10;99.90;;;;;;5118298;28;20495;-57
2023/06/20 08:09:16;;;;;;;6.10;5.50;;;27.20;99.90;;;;;;5119172;28;20496;-58
2023/06/20 08:11:43;;;;;;;6.07;5.67;;;27.20;99.90;;;;;;5118876;28;20905;-59
2023/06/20 08:14:12;;;;;;;5.70;5.30;;;27.40;99.90;;;;;;5118739;28;20534;-60
2023/06/20 08:16:39;;;;;;;5.30;4.90;;;27.70;99.90;;;;;;5119048;27;20516;-59
2023/06/20 08:19:07;;;;;;;6.17;5.77;;;28.10;98.90;;;;;;5119029;28;20487;-60
2023/06/20 08:21:34;;;;;;;5.03;4.73;;;28.50;97.40;;;;;;5118397;28;20588;-59
2023/06/20 08:24:02;;;;;;;6.23;5.70;;;28.70;70.00;;;;;;5118544;28;20480;-61
2023/06/20 08:26:30;;;;;;;6.00;5.60;;;28.90;43.30;;;;;;5118098;28;20459;-59
2023/06/20 08:28:58;;;;;;;5.60;5.20;;;29.10;19.40;;;;;;5118252;28;20554;-59
2023/06/20 08:31:36;;;;;;;5.80;5.40;;;29.20;1.00;;;;;;5118604;28;20744;-59
2023/06/20 08:34:03;;;;;;;6.10;5.50;;;29.20;1.00;;;;;;5118090;28;20594;-59
2023/06/20 08:36:32;;;;;;;5.43;5.03;;;29.30;1.00;;;;;;5118220;28;20516;-60
2023/06/20 08:39:00;;;;;;;6.30;5.90;;;29.60;1.00;;;;;;5118494;28;20463;-60
2023/06/20 08:41:28;;;;;;;5.93;5.53;;;29.70;1.00;;;;;;5118187;28;20558;-60
2023/06/20 08:43:57;;;;;;;5.90;5.50;;;30.10;1.00;;;;;;5117910;28;20842;-60
2023/06/20 08:46:25;;;;;;;5.90;5.50;;;30.50;1.00;;;;;;5118073;28;20516;-60
2023/06/20 08:48:52;;;;;;;6.23;5.73;;;30.50;1.00;;;;;;5118053;28;20465;-60
2023/06/20 08:51:22;;;;;;;5.27;4.93;;;30.60;1.00;;;;;;5117135;28;20463;-60
2023/06/20 08:53:52;;;;;;;6.30;5.87;;;30.60;1.00;;;;;;5117182;28;20491;-60
2023/06/20 08:56:21;;;;;;;6.23;5.80;;;30.70;1.00;;;;;;5117888;28;20495;-60
2023/06/20 08:58:49;;;;;;;6.67;5.90;;;30.90;1.00;;;;;;5117740;28;20551;-61
2023/06/20 09:01:17;;;;;;;6.03;5.53;;;31.00;1.00;;;;;;5118183;28;20486;-60
2023/06/20 09:03:45;;;;;;;6.30;5.90;;;31.00;1.00;;;;;;5117427;28;20581;-59
2023/06/20 09:06:12;;;;;;;6.63;6.13;;;30.90;1.00;;;;;;5117702;28;20724;-60
2023/06/20 09:08:40;;;;;;;6.13;5.63;;;31.20;1.00;;;;;;5117439;28;20455;-61
2023/06/20 09:11:09;;;;;;;6.80;6.30;;;31.50;1.00;;;;;;5117707;28;20451;-59
2023/06/20 09:13:37;;;;;;;6.80;6.30;;;31.50;1.00;;;;;;5117958;28;20455;-60
2023/06/20 09:16:08;;;;;;;7.00;6.50;;;31.20;99.90;;;;;;5117554;28;20455;-58
2023/06/20 09:18:40;;;;;;;6.00;5.60;;;30.60;99.90;;;;;;5122512;27;20459;-59
2023/06/20 09:21:15;;;;;;;6.77;6.33;;;30.30;99.90;;;;;;5118862;28;20458;-60
2023/06/20 09:23:42;;;;;;;6.40;5.90;;;30.80;1.00;;;;;;5131700;28;20465;-59
2023/06/20 09:26:17;;;;;;;6.70;6.27;;;31.00;99.90;;;;;;5132219;28;20933;-61
2023/06/20 09:28:44;;;;;;;6.90;6.40;;;31.10;99.90;;;;;;5117426;28;20458;-60
2023/06/20 09:31:13;;;;;;;5.93;5.53;;;30.70;99.90;;;;;;5129286;28;20462;-59
2023/06/20 09:33:42;;;;;;;6.27;5.87;;;31.00;99.90;;;;;;5124528;28;20490;-60
2023/06/20 09:36:14;;;;;;;5.47;5.07;;;31.20;99.90;;;;;;5116833;28;20455;-60
2023/06/20 09:38:43;;;;;;;6.47;6.07;;;31.20;99.90;;;;;;5116611;28;20900;-59
2023/06/20 09:41:16;;;;;;;6.43;5.97;;;31.40;99.90;;;;;;5116269;28;20463;-59
2023/06/20 09:43:44;;;;;;;7.40;6.77;;;30.80;99.90;;;;;;5116720;28;20470;-60
2023/06/20 09:46:11;;;;;;;6.80;6.30;;;30.70;99.90;;;;;;5116614;28;20549;-60
2023/06/20 09:48:40;;;;;;;8.07;7.47;;;30.50;99.90;;;;;;5115784;28;20872;-61
2023/06/20 09:51:09;;;;;;;7.30;6.70;;;30.40;99.90;;;;;;5115051;28;20558;-60
2023/06/20 09:53:45;;;;;;;6.80;6.30;;;30.70;99.90;;;;;;5115809;28;20459;-59
2023/06/20 09:56:15;;;;;;;6.00;5.40;;;31.10;99.90;;;;;;5114190;28;20510;-51
2023/06/20 09:58:46;;;;;;;6.60;6.07;;;31.40;99.90;;;;;;5113881;28;20462;-58
2023/06/20 10:01:15;;;;;;;5.93;5.43;;;31.30;99.90;;;;;;5115653;28;20463;-60
2023/06/20 10:03:43;;;;;;;6.07;5.67;;;31.10;99.90;;;;;;5119117;28;20487;-61
2023/06/20 10:06:12;;;;;;;6.90;6.40;;;31.30;99.90;;;;;;5119606;28;20937;-59
2023/06/20 10:08:41;;;;;;;6.10;5.70;;;31.50;99.90;;;;;;5120331;28;20459;-59
2023/06/20 10:11:09;;;;;;;6.50;6.10;;;31.60;99.90;;;;;;5119726;28;20455;-59
2023/06/20 10:13:36;;;;;;;5.83;5.47;;;31.80;99.90;;;;;;5119491;28;20562;-59
2023/06/20 10:16:05;;;;;;;5.97;5.57;;;31.90;99.90;;;;;;5118462;28;20487;-60
2023/06/20 10:18:39;;;;;;;5.60;5.20;;;32.10;99.90;;;;;;5118106;28;20482;-61
2023/06/20 10:21:07;;;;;;;5.63;5.23;;;32.10;99.90;;;;;;5118386;28;20458;-61
2023/06/20 10:23:38;;;;;;;6.30;5.90;;;32.50;99.90;;;;;;5118184;28;21076;-59
2023/06/20 10:26:08;;;;;;;5.97;5.47;;;32.60;99.90;;;;;;5119012;27;20463;-59
2023/06/20 10:28:37;;;;;;;5.80;5.40;;;32.90;99.90;;;;;;5119423;28;20900;-60
2023/06/20 10:31:04;;;;;;;6.13;5.70;;;33.00;99.90;;;;;;5120210;28;20459;-58
2023/06/20 10:33:32;;;;;;;5.70;5.30;;;33.40;99.90;;;;;;5121029;28;20754;-60
2023/06/20 10:36:02;;;;;;;5.87;5.47;;;33.40;99.90;;;;;;5119346;28;20522;-60
2023/06/20 10:38:31;;;;;;;5.23;4.90;;;33.90;99.90;;;;;;5118870;28;20740;-61
2023/06/20 10:41:10;;;;;;;5.60;5.20;;;33.70;99.90;;;;;;5116301;28;20561;-59
2023/06/20 10:43:52;;;;;;;5.80;5.30;;;34.00;99.90;;;;;;5122703;27;20476;-59
2023/06/20 10:46:22;;;;;;;6.60;6.10;;;33.40;99.90;;;;;;5122268;27;20474;-60
2023/06/20 10:48:49;;;;;;;5.87;5.57;;;33.30;99.90;;;;;;5123453;27;20482;-59
2023/06/20 10:51:16;;;;;;;6.40;6.00;;;33.30;99.90;;;;;;5114001;28;20785;-59
2023/06/20 10:53:43;;;;;;;6.63;6.03;;;33.50;99.90;;;;;;5111755;27;20911;-59
2023/06/20 10:56:27;;;;;;;6.33;5.93;;;33.90;99.90;;;;;;5110753;28;20487;-59
2023/06/20 10:58:55;;;;;;;5.87;5.37;;;34.10;99.90;;;;;;5119615;28;20888;-60
2023/06/20 11:01:27;;;;;;;5.93;5.53;;;33.60;99.90;;;;;;5119238;28;20461;-59
2023/06/20 11:03:54;;;;;;;6.20;5.77;;;33.40;99.90;;;;;;5118103;28;20993;-59
2023/06/20 11:06:22;;;;;;;6.63;6.13;;;33.20;99.90;;;;;;5118366;28;20519;-59
2023/06/20 11:08:50;;;;;;;5.30;5.00;;;33.10;99.90;;;;;;5117475;28;20955;-59
2023/06/20 11:11:17;;;;;;;5.13;4.73;;;33.40;99.90;;;;;;5117792;28;20778;-59
2023/06/20 11:13:45;;;;;;;5.30;5.00;;;33.70;99.90;;;;;;5116744;28;20462;-61
2023/06/20 11:16:19;;;;;;;6.00;5.60;;;32.80;99.90;;;;;;5117691;28;20490;-60
2023/06/20 11:18:47;;;;;;;5.73;5.33;;;32.30;99.90;;;;;;5118009;28;20793;-59
2023/06/20 11:21:16;;;;;;;5.83;5.43;;;32.80;99.90;;;;;;5118913;28;20486;-59
2023/06/20 11:23:44;;;;;;;5.97;5.57;;;33.00;99.90;;;;;;5119686;28;20462;-58
2023/06/20 11:26:11;;;;;;;5.80;5.40;;;32.60;99.90;;;;;;5119536;28;20461;-58
2023/06/20 11:28:38;;;;;;;6.00;5.40;;;33.00;99.90;;;;;;5119189;28;20558;-56
2023/06/20 11:31:11;;;;;;;5.70;5.30;;;33.60;99.90;;;;;;5118239;28;20486;-59
2023/06/20 11:33:38;;;;;;;6.07;5.67;;;33.70;99.90;;;;;;5119254;28;20470;-58
2023/06/20 11:36:06;;;;;;;5.80;5.43;;;33.30;99.90;;;;;;5119320;28;20473;-56
2023/06/20 11:38:38;;;;;;;5.30;4.90;;;33.40;99.90;;;;;;5119314;28;20458;-61
2023/06/20 11:41:07;;;;;;;5.70;5.27;;;33.70;99.90;;;;;;5119293;28;20515;-60
2023/06/20 11:43:40;;;;;;;5.60;5.20;;;33.50;99.90;;;;;;5119495;28;20466;-60
2023/06/20 11:46:08;;;;;;;5.33;4.93;;;33.00;99.90;;;;;;5119049;28;20490;-60
2023/06/20 11:48:37;;;;;;;6.73;6.10;;;32.40;99.90;;;;;;5119211;28;20482;-60
2023/06/20 11:51:05;;;;;;;6.00;5.60;;;32.20;99.90;;;;;;5119093;28;20458;-59
2023/06/20 11:53:35;;;;;;;6.17;5.67;;;32.40;99.90;;;;;;5119510;28;20465;-60
2023/06/20 11:56:04;;;;;;;5.50;5.17;;;32.60;99.90;;;;;;5118706;28;20495;-61
2023/06/20 11:58:37;;;;;;;6.10;5.70;;;33.10;99.90;;;;;;5119207;28;20458;-62
2023/06/20 12:01:08;;;;;;;6.13;5.67;;;33.70;99.90;;;;;;5116692;28;20876;-61
2023/06/20 12:03:39;;;;;;;6.50;5.90;;;33.90;99.90;;;;;;5106236;28;20537;-61
2023/06/20 12:06:28;;;;;;;5.40;5.10;;;34.20;99.90;;;;;;5101655;28;20475;-61
2023/06/20 12:08:55;;;;;;;6.77;6.17;;;34.50;99.90;;;;;;5109052;28;20474;-62
2023/06/20 12:11:22;;;;;;;6.03;5.63;;;34.30;99.90;;;;;;5117910;28;20456;-61
2023/06/20 12:13:52;;;;;;;5.83;5.43;;;34.10;99.90;;;;;;5117587;28;20498;-61
2023/06/20 12:16:20;;;;;;;5.90;5.50;;;34.30;99.90;;;;;;5113234;28;20491;-61
2023/06/20 12:18:51;;;;;;;6.00;5.60;;;34.20;99.90;;;;;;5110438;28;20515;-61
2023/06/20 12:21:18;;;;;;;5.93;5.53;;;34.40;99.90;;;;;;5117664;27;20470;-61
2023/06/20 12:23:46;;;;;;;5.47;5.07;;;34.40;99.90;;;;;;5118068;28;20490;-61
2023/06/20 12:26:14;;;;;;;6.73;6.33;;;34.00;99.90;;;;;;5118293;28;20458;-61
2023/06/20 12:28:42;;;;;;;6.33;5.73;;;33.30;91.40;;;;;;5118377;28;20462;-59
2023/06/20 12:31:11;;;;;;;6.20;5.70;;;32.50;60.50;;;;;;5118693;28;20511;-59
2023/06/20 12:33:38;;;;;;;7.30;6.80;;;32.10;56.00;;;;;;5118245;28;20500;-59
2023/06/20 12:36:08;;;;;;;5.87;5.47;;;32.10;59.60;;;;;;5118082;28;20793;-59
2023/06/20 12:38:35;;;;;;;6.27;5.87;;;32.70;81.10;;;;;;5118099;27;20904;-57
2023/06/20 12:41:03;;;;;;;6.70;6.30;;;33.00;79.20;;;;;;5118641;27;20462;-58
2023/06/20 12:43:31;;;;;;;6.57;5.97;;;32.50;57.50;;;;;;5114841;27;20455;-59
2023/06/20 12:45:59;;;;;;;6.00;5.60;;;32.50;49.80;;;;;;5115935;28;20455;-59
2023/06/20 12:48:26;;;;;;;6.30;5.70;;;32.80;60.50;;;;;;5111234;28;20544;-59
2023/06/20 12:50:53;;;;;;;7.63;6.07;;;33.20;72.60;;;;;;5119302;27;20455;-60
2023/06/20 12:53:22;;;;;;;5.93;5.53;;;34.10;99.90;;;;;;5117575;27;20445;-59
2023/06/20 12:55:49;;;;;;;7.27;6.77;;;35.00;99.90;;;;;;5119954;27;20769;-60
2023/06/20 12:58:17;;;;;;;5.80;5.30;;;35.30;99.90;;;;;;5119064;27;20463;-59
2023/06/20 13:00:47;;;;;;;6.37;5.87;;;35.60;99.90;;;;;;5118427;28;20949;-59